Time;durP1;ratioP1;P1;durP2;ratioP2;P2;SDS_P1;SDS_P2;PMS_P1;PMS_P2;Temp;Humidity;BMP_temperature;BMP_pressure;BME280_temperature;BME280_humidity;BME280_pressure;Samples;Min_cycle;Max_cycle;Signal;HPM_P1;HPM_P2
2023/02/18 00:02:23;;;;;;;1.60;1.37;;;21.30;60.90;;;;;;4958400;29;20446;-91
2023/02/18 00:04:50;;;;;;;1.77;1.67;;;21.30;60.80;;;;;;4958452;29;20537;-92
2023/02/18 00:07:17;;;;;;;1.60;1.33;;;21.30;60.90;;;;;;4958825;29;20446;-92
2023/02/18 00:09:43;;;;;;;1.47;1.20;;;21.30;60.80;;;;;;4959291;29;20501;-90
2023/02/18 00:12:10;;;;;;;1.73;1.43;;;21.30;60.80;;;;;;4958025;29;20445;-89
2023/02/18 00:14:38;;;;;;;1.50;1.40;;;21.30;60.70;;;;;;4958369;29;20464;-90
2023/02/18 00:17:04;;;;;;;1.47;1.37;;;21.30;60.80;;;;;;4958401;29;20498;-91
2023/02/18 00:19:33;;;;;;;1.50;1.40;;;21.30;60.80;;;;;;4961150;28;20798;-92
2023/02/18 00:21:59;;;;;;;1.33;1.20;;;21.30;60.80;;;;;;4977579;28;20453;-92
2023/02/18 00:24:26;;;;;;;1.53;1.20;;;21.30;60.70;;;;;;4978030;28;20441;-91
2023/02/18 00:26:53;;;;;;;1.47;1.30;;;21.30;60.70;;;;;;4977461;28;20545;-93
2023/02/18 00:29:20;;;;;;;1.57;1.47;;;21.30;60.80;;;;;;4977307;28;20540;-92
2023/02/18 00:31:47;;;;;;;1.63;1.53;;;21.30;61.60;;;;;;4965702;28;20482;-91
2023/02/18 00:34:14;;;;;;;2.70;1.53;;;21.30;60.80;;;;;;4958356;29;20893;-92
2023/02/18 00:36:43;;;;;;;1.30;1.10;;;21.30;60.70;;;;;;4957419;28;20546;-93
2023/02/18 00:39:11;;;;;;;1.60;1.50;;;21.30;60.80;;;;;;4958247;29;20447;-89
2023/02/18 00:41:38;;;;;;;1.40;1.30;;;21.30;60.60;;;;;;4957660;29;20532;-88
2023/02/18 00:44:06;;;;;;;1.30;1.20;;;21.20;60.50;;;;;;4957565;29;20454;-89
2023/02/18 00:46:33;;;;;;;2.60;1.87;;;21.20;60.50;;;;;;4958077;29;20944;-89
2023/02/18 00:48:59;;;;;;;1.40;1.30;;;21.20;60.50;;;;;;4957773;29;20561;-90
2023/02/18 00:51:26;;;;;;;1.47;1.37;;;21.20;60.50;;;;;;4957913;29;20446;-88
2023/02/18 00:53:55;;;;;;;1.40;1.30;;;21.20;60.50;;;;;;4957812;29;20798;-91
2023/02/18 00:56:22;;;;;;;1.60;1.50;;;21.20;60.50;;;;;;4957300;29;21463;-89
2023/02/18 00:58:49;;;;;;;1.77;1.67;;;21.20;60.50;;;;;;4957547;29;20460;-92
2023/02/18 01:01:16;;;;;;;3.33;1.50;;;21.40;60.70;;;;;;4957520;29;20474;-91
2023/02/18 01:03:45;;;;;;;1.20;1.10;;;21.20;60.50;;;;;;4957315;29;20948;-92
2023/02/18 01:06:12;;;;;;;1.57;1.40;;;21.20;60.50;;;;;;4960667;28;20920;-92
2023/02/18 01:08:40;;;;;;;1.40;1.30;;;21.30;60.60;;;;;;4976332;28;20453;-88
2023/02/18 01:11:10;;;;;;;1.43;1.33;;;21.30;60.60;;;;;;4976451;28;20817;-88
2023/02/18 01:13:37;;;;;;;1.37;1.27;;;21.20;60.40;;;;;;4976585;28;20455;-88
2023/02/18 01:16:04;;;;;;;1.77;1.30;;;21.20;60.50;;;;;;4976420;28;20492;-92
2023/02/18 01:18:31;;;;;;;1.37;1.27;;;21.20;60.40;;;;;;4976527;28;20449;-89
2023/02/18 01:20:58;;;;;;;1.33;1.23;;;21.30;60.60;;;;;;4976106;28;20445;-92
2023/02/18 01:23:25;;;;;;;1.50;1.40;;;21.20;60.40;;;;;;4976155;28;20457;-89
2023/02/18 01:25:52;;;;;;;1.30;1.20;;;21.30;60.50;;;;;;4976393;28;20455;-88
2023/02/18 01:28:24;;;;;;;1.43;1.20;;;21.20;60.40;;;;;;4976275;28;20806;-88
2023/02/18 01:30:51;;;;;;;1.37;1.27;;;21.20;60.40;;;;;;4969397;28;20477;-91
2023/02/18 01:33:18;;;;;;;1.43;1.33;;;21.20;60.40;;;;;;4956538;29;20993;-89
2023/02/18 01:35:44;;;;;;;1.40;1.30;;;21.20;60.40;;;;;;4956554;29;20600;-89
2023/02/18 01:38:11;;;;;;;1.70;1.30;;;21.20;60.40;;;;;;4956646;28;20450;-88
2023/02/18 01:40:46;;;;;;;1.43;1.33;;;21.20;60.40;;;;;;4958013;28;20454;-92
2023/02/18 01:43:14;;;;;;;1.30;1.20;;;21.20;60.40;;;;;;4975924;28;20912;-88
2023/02/18 01:45:57;;;;;;;1.57;1.47;;;21.20;60.50;;;;;;4976095;28;20932;-92
2023/02/18 01:48:34;;;;;;;1.30;1.20;;;21.20;60.40;;;;;;4975151;28;20433;-89
2023/02/18 01:51:05;;;;;;;1.30;1.20;;;21.20;60.40;;;;;;4975818;28;20533;-91
2023/02/18 01:53:38;;;;;;;1.33;1.23;;;21.20;60.40;;;;;;4975727;28;20441;-88
2023/02/18 01:56:08;;;;;;;1.50;1.40;;;21.20;60.40;;;;;;4975869;28;20485;-90
2023/02/18 01:58:36;;;;;;;1.17;1.07;;;21.10;60.30;;;;;;4975992;28;20544;-89
2023/02/18 02:01:04;;;;;;;1.57;1.47;;;21.20;60.40;;;;;;4975649;28;20473;-92
2023/02/18 02:03:31;;;;;;;1.60;1.43;;;21.20;60.50;;;;;;4975693;28;20462;-89
2023/02/18 02:05:58;;;;;;;2.97;1.10;;;21.20;60.40;;;;;;4975745;28;20457;-92
2023/02/18 02:08:25;;;;;;;1.17;1.07;;;21.10;60.30;;;;;;4975568;28;20820;-91
2023/02/18 02:11:12;;;;;;;1.30;1.20;;;21.10;60.30;;;;;;4975440;28;20453;-92
2023/02/18 02:13:53;;;;;;;1.40;1.30;;;21.20;60.30;;;;;;4975457;28;20445;-91
2023/02/18 02:16:29;;;;;;;1.37;1.27;;;21.10;60.30;;;;;;4975216;28;21011;-89
2023/02/18 02:19:14;;;;;;;1.30;1.20;;;21.10;60.20;;;;;;4975441;28;20444;-88
2023/02/18 02:22:25;;;;;;;1.50;1.40;;;21.30;60.50;;;;;;4975307;28;20437;-87
2023/02/18 02:25:13;;;;;;;1.70;1.60;;;21.10;60.20;;;;;;4974620;28;20448;-91
2023/02/18 02:28:27;;;;;;;1.23;1.13;;;21.10;60.30;;;;;;4975908;28;20449;-88
2023/02/18 02:31:42;;;;;;;1.40;1.30;;;21.10;60.20;;;;;;4969920;28;20816;-92
2023/02/18 02:34:38;;;;;;;1.47;1.37;;;21.10;60.20;;;;;;4916295;29;20789;-92
2023/02/18 02:37:12;;;;;;;1.57;1.47;;;21.10;60.20;;;;;;4975360;28;20497;-92
2023/02/18 02:39:47;;;;;;;1.53;1.40;;;21.10;60.30;;;;;;4974887;28;20436;-89
2023/02/18 02:42:22;;;;;;;1.50;1.40;;;21.10;60.20;;;;;;4975317;28;20449;-92
2023/02/18 02:44:54;;;;;;;1.50;1.40;;;21.10;60.30;;;;;;4959388;28;20650;-91
2023/02/18 02:47:28;;;;;;;1.30;1.20;;;21.10;60.20;;;;;;4955836;29;20466;-89
2023/02/18 02:50:04;;;;;;;1.63;1.30;;;21.10;60.20;;;;;;4955728;29;20441;-90
2023/02/18 02:52:33;;;;;;;1.43;1.33;;;21.10;60.20;;;;;;4955737;29;20508;-89
2023/02/18 02:55:03;;;;;;;1.33;1.20;;;21.20;60.30;;;;;;4955421;29;20446;-92
2023/02/18 02:57:46;;;;;;;1.50;1.40;;;21.20;60.40;;;;;;4956131;28;21015;-92
2023/02/18 03:00:16;;;;;;;1.30;1.20;;;21.10;60.10;;;;;;4955347;29;20546;-90
2023/02/18 03:03:06;;;;;;;1.63;1.53;;;21.10;60.20;;;;;;4970679;28;20447;-90
2023/02/18 03:05:43;;;;;;;1.67;1.40;;;21.10;60.20;;;;;;4974862;28;20429;-89
2023/02/18 03:08:25;;;;;;;1.47;1.37;;;21.10;60.20;;;;;;4974655;28;20915;-88
2023/02/18 03:11:03;;;;;;;1.43;1.33;;;21.10;60.30;;;;;;4974595;28;20484;-90
2023/02/18 03:13:47;;;;;;;1.53;1.43;;;21.10;60.20;;;;;;4974423;28;20458;-92
2023/02/18 03:16:23;;;;;;;1.50;1.40;;;21.10;60.20;;;;;;4974789;28;20441;-89
2023/02/18 03:18:57;;;;;;;1.60;1.50;;;21.10;60.20;;;;;;4974717;28;20453;-88
2023/02/18 03:21:29;;;;;;;1.50;1.20;;;21.10;60.20;;;;;;4956154;28;20438;-92
2023/02/18 03:24:00;;;;;;;1.40;1.30;;;21.10;60.10;;;;;;4955148;29;20441;-89
2023/02/18 03:26:30;;;;;;;1.20;1.10;;;21.10;60.10;;;;;;4955114;29;20446;-89
2023/02/18 03:29:01;;;;;;;1.30;1.20;;;21.10;60.20;;;;;;4955333;29;20457;-88
2023/02/18 03:31:30;;;;;;;1.20;1.10;;;21.20;61.10;;;;;;4955174;29;20468;-91
2023/02/18 03:34:01;;;;;;;1.30;1.20;;;21.10;60.10;;;;;;4955381;29;20530;-88
2023/02/18 03:36:31;;;;;;;1.37;1.27;;;21.10;60.10;;;;;;4955303;29;20549;-88
2023/02/18 03:39:03;;;;;;;1.30;1.20;;;21.30;60.40;;;;;;4968702;28;20444;-89
2023/02/18 03:41:30;;;;;;;1.93;1.50;;;21.10;60.10;;;;;;4974465;28;20535;-89
2023/02/18 03:44:01;;;;;;;1.50;1.40;;;21.10;60.20;;;;;;4974218;28;20452;-89
2023/02/18 03:46:28;;;;;;;1.50;1.40;;;21.10;60.10;;;;;;4974514;28;20536;-88
2023/02/18 03:48:56;;;;;;;1.40;1.30;;;21.00;60.00;;;;;;4974517;28;20479;-91
2023/02/18 03:51:22;;;;;;;1.23;1.13;;;21.00;60.10;;;;;;4974247;28;20453;-89
2023/02/18 03:53:51;;;;;;;1.23;1.13;;;21.10;60.10;;;;;;4974474;28;20452;-88
2023/02/18 03:56:18;;;;;;;1.33;1.23;;;21.00;60.00;;;;;;4974681;28;20449;-88
2023/02/18 03:58:44;;;;;;;1.50;1.40;;;21.00;60.10;;;;;;4974101;28;20943;-88
2023/02/18 04:01:11;;;;;;;1.50;1.40;;;21.00;60.10;;;;;;4974223;28;20473;-91
2023/02/18 04:03:38;;;;;;;1.30;1.20;;;21.00;60.00;;;;;;4968809;28;20458;-88
2023/02/18 04:06:05;;;;;;;1.40;1.30;;;21.00;60.00;;;;;;4974190;28;20463;-88
2023/02/18 04:08:32;;;;;;;1.30;1.20;;;21.00;60.00;;;;;;4974234;28;20889;-88
2023/02/18 04:11:00;;;;;;;1.20;1.10;;;21.00;60.00;;;;;;4974118;28;20454;-88
2023/02/18 04:13:27;;;;;;;1.20;1.10;;;21.00;60.00;;;;;;4976395;28;20454;-89
2023/02/18 04:15:54;;;;;;;1.30;1.20;;;21.00;60.00;;;;;;4960172;28;20460;-90
2023/02/18 04:18:21;;;;;;;1.40;1.30;;;21.00;60.00;;;;;;4958139;29;20487;-89
2023/02/18 04:20:48;;;;;;;1.47;1.37;;;21.00;60.00;;;;;;4957855;29;20446;-88
2023/02/18 04:23:15;;;;;;;1.47;1.37;;;21.00;60.00;;;;;;4958062;29;20918;-88
2023/02/18 04:25:41;;;;;;;1.40;1.30;;;21.20;60.20;;;;;;4958150;29;20450;-88
2023/02/18 04:28:12;;;;;;;1.43;1.33;;;21.00;60.00;;;;;;4958085;29;20451;-88
2023/02/18 04:30:39;;;;;;;1.17;1.07;;;21.00;60.00;;;;;;4958142;28;21003;-88
2023/02/18 04:33:05;;;;;;;1.40;1.30;;;21.00;60.00;;;;;;4958038;29;20488;-88
2023/02/18 04:35:32;;;;;;;1.60;1.50;;;21.00;60.00;;;;;;4958197;29;20442;-88
2023/02/18 04:37:59;;;;;;;1.37;1.27;;;21.00;60.00;;;;;;4957479;29;20488;-88
2023/02/18 04:40:29;;;;;;;1.17;1.07;;;21.00;60.00;;;;;;4957946;29;20454;-88
2023/02/18 04:42:56;;;;;;;1.53;1.43;;;21.00;60.00;;;;;;4957965;29;20449;-88
2023/02/18 04:45:24;;;;;;;1.50;1.40;;;21.00;60.10;;;;;;4957853;29;20453;-88
2023/02/18 04:47:51;;;;;;;1.40;1.30;;;21.00;60.00;;;;;;4957362;29;20446;-88
2023/02/18 04:50:18;;;;;;;1.10;0.97;;;21.00;60.00;;;;;;4958046;29;20468;-88
2023/02/18 04:52:45;;;;;;;1.30;1.17;;;21.00;60.00;;;;;;4961949;28;20448;-88
2023/02/18 04:55:12;;;;;;;1.30;1.20;;;21.00;60.10;;;;;;4977013;28;20536;-88
2023/02/18 04:57:39;;;;;;;1.30;1.20;;;21.10;60.10;;;;;;4976509;28;20495;-88
2023/02/18 05:00:08;;;;;;;1.73;1.63;;;21.10;60.20;;;;;;4976757;28;20829;-88
2023/02/18 05:02:36;;;;;;;1.40;1.30;;;21.00;60.00;;;;;;4976537;28;20533;-89
2023/02/18 05:05:03;;;;;;;1.40;1.30;;;21.00;60.00;;;;;;4976581;28;20441;-88
2023/02/18 05:07:29;;;;;;;1.47;1.37;;;21.00;60.00;;;;;;4962660;28;20446;-88
2023/02/18 05:09:56;;;;;;;1.33;1.23;;;21.00;60.10;;;;;;4974719;28;20441;-88
2023/02/18 05:12:23;;;;;;;1.33;1.23;;;21.00;60.00;;;;;;4976392;28;20958;-88
2023/02/18 05:14:50;;;;;;;1.30;1.20;;;21.00;60.00;;;;;;4976424;28;20540;-88
2023/02/18 05:17:16;;;;;;;1.10;1.00;;;21.00;60.10;;;;;;4974798;28;20493;-88
2023/02/18 05:19:45;;;;;;;1.30;1.20;;;20.90;60.00;;;;;;4957072;29;20455;-88
2023/02/18 05:22:11;;;;;;;1.20;1.10;;;21.00;60.00;;;;;;4956752;29;20451;-88
2023/02/18 05:24:38;;;;;;;1.27;1.17;;;21.00;60.10;;;;;;4956799;28;20445;-88
2023/02/18 05:27:05;;;;;;;1.30;1.20;;;21.00;60.10;;;;;;4957015;29;20454;-88
2023/02/18 05:29:32;;;;;;;1.50;1.40;;;21.00;60.00;;;;;;4956960;29;20465;-88
2023/02/18 05:31:58;;;;;;;1.40;1.30;;;21.00;60.90;;;;;;4956418;29;20488;-88
2023/02/18 05:34:25;;;;;;;1.20;1.10;;;20.90;60.00;;;;;;4956648;29;20444;-88
2023/02/18 05:36:53;;;;;;;1.40;1.30;;;21.00;60.00;;;;;;4956538;29;20453;-88
2023/02/18 05:39:20;;;;;;;1.10;1.00;;;20.90;59.90;;;;;;4971457;28;20452;-88
2023/02/18 05:41:47;;;;;;;1.10;0.93;;;21.10;60.10;;;;;;4975966;28;20452;-88
2023/02/18 05:44:32;;;;;;;1.30;1.20;;;20.90;59.90;;;;;;4959800;28;20448;-88
2023/02/18 05:47:02;;;;;;;1.43;1.33;;;20.90;60.00;;;;;;4956557;29;20483;-88
2023/02/18 05:49:29;;;;;;;1.33;1.23;;;20.90;59.90;;;;;;4956619;29;20442;-88
2023/02/18 05:51:57;;;;;;;1.40;1.30;;;20.90;60.00;;;;;;4956338;29;20442;-88
2023/02/18 05:54:25;;;;;;;1.20;1.07;;;20.90;60.00;;;;;;4956299;29;20457;-88
2023/02/18 05:56:52;;;;;;;1.30;1.10;;;20.90;60.00;;;;;;4956095;29;20451;-88
2023/02/18 05:59:20;;;;;;;1.30;1.10;;;20.90;60.00;;;;;;4956219;29;20446;-88
2023/02/18 06:01:47;;;;;;;1.20;1.10;;;21.00;60.00;;;;;;4956020;29;20477;-88
2023/02/18 06:04:14;;;;;;;1.10;1.00;;;21.10;61.00;;;;;;4956384;29;20438;-88
2023/02/18 06:06:41;;;;;;;1.40;1.10;;;21.10;60.20;;;;;;4956204;29;20774;-88
2023/02/18 06:09:09;;;;;;;1.27;1.17;;;20.90;60.00;;;;;;4956126;29;20445;-88
2023/02/18 06:11:36;;;;;;;1.10;1.00;;;20.90;60.00;;;;;;4955864;29;20972;-88
2023/02/18 06:14:03;;;;;;;1.20;1.10;;;20.90;60.00;;;;;;4955930;29;20442;-88
2023/02/18 06:16:30;;;;;;;1.10;1.00;;;20.90;60.00;;;;;;4956471;29;20924;-88
2023/02/18 06:18:57;;;;;;;1.17;1.07;;;20.90;59.90;;;;;;4955758;29;20494;-88
2023/02/18 06:21:24;;;;;;;1.10;0.97;;;20.90;60.00;;;;;;4956493;29;20442;-88
2023/02/18 06:23:51;;;;;;;1.13;1.00;;;21.00;60.10;;;;;;4956304;29;20477;-88
2023/02/18 06:26:19;;;;;;;1.20;1.10;;;20.90;59.90;;;;;;4955871;29;20446;-88
2023/02/18 06:28:46;;;;;;;1.10;1.00;;;20.90;60.10;;;;;;4955958;29;20450;-90
2023/02/18 06:31:13;;;;;;;1.30;1.10;;;20.90;60.00;;;;;;4971528;28;20468;-92
2023/02/18 06:33:40;;;;;;;1.30;1.20;;;20.90;59.90;;;;;;4959796;28;20947;-90
2023/02/18 06:36:10;;;;;;;1.43;1.33;;;20.90;59.90;;;;;;4974491;28;20477;-91
2023/02/18 06:38:38;;;;;;;1.10;1.00;;;20.90;60.00;;;;;;4965230;28;20520;-90
2023/02/18 06:41:05;;;;;;;1.33;1.23;;;20.90;59.90;;;;;;4955887;29;20433;-88
2023/02/18 06:43:35;;;;;;;1.30;1.20;;;20.90;60.00;;;;;;4955464;29;20963;-88
2023/02/18 06:46:02;;;;;;;1.30;1.20;;;20.90;60.00;;;;;;4960799;28;20459;-91
2023/02/18 06:48:29;;;;;;;1.20;1.00;;;20.90;60.00;;;;;;4974963;28;20461;-88
2023/02/18 06:50:55;;;;;;;1.20;1.10;;;20.90;60.00;;;;;;4974581;28;20536;-88
2023/02/18 06:53:22;;;;;;;1.20;1.10;;;20.90;60.00;;;;;;4974812;28;20453;-91
2023/02/18 06:55:49;;;;;;;1.13;1.03;;;20.90;60.00;;;;;;4974991;28;20520;-88
2023/02/18 06:58:16;;;;;;;1.40;1.10;;;20.90;60.00;;;;;;4974676;28;20488;-86
2023/02/18 07:00:44;;;;;;;1.27;1.17;;;20.90;60.00;;;;;;4955059;28;21000;-90
2023/02/18 07:03:12;;;;;;;1.97;1.07;;;20.90;60.00;;;;;;4954864;29;20438;-89
2023/02/18 07:05:39;;;;;;;1.10;1.00;;;20.90;59.90;;;;;;4955404;29;20456;-89
2023/02/18 07:08:06;;;;;;;1.40;1.10;;;20.90;60.10;;;;;;4955276;29;20447;-88
2023/02/18 07:10:32;;;;;;;1.10;1.00;;;20.90;60.00;;;;;;4955070;28;20975;-89
2023/02/18 07:12:59;;;;;;;2.60;1.20;;;21.10;60.30;;;;;;4971002;28;20822;-89
2023/02/18 07:15:26;;;;;;;1.50;1.40;;;20.90;60.00;;;;;;4974478;28;20447;-91
2023/02/18 07:17:55;;;;;;;4.37;1.10;;;20.90;60.10;;;;;;4963386;28;20477;-87
2023/02/18 07:20:22;;;;;;;1.10;1.00;;;20.90;60.30;;;;;;4955253;29;20456;-87
2023/02/18 07:22:49;;;;;;;3.00;1.40;;;20.90;60.20;;;;;;4960090;28;20437;-88
2023/02/18 07:25:16;;;;;;;1.37;1.20;;;20.90;60.20;;;;;;4954901;29;20454;-88
2023/02/18 07:27:43;;;;;;;1.40;1.13;;;20.90;60.20;;;;;;4955847;29;20454;-88
2023/02/18 07:30:11;;;;;;;5.00;1.70;;;20.90;60.50;;;;;;4955733;28;20465;-87
2023/02/18 07:32:37;;;;;;;1.30;1.13;;;20.90;60.40;;;;;;4974654;28;20984;-88
2023/02/18 07:35:06;;;;;;;1.20;1.10;;;20.90;60.50;;;;;;4974547;28;20532;-88
2023/02/18 07:37:33;;;;;;;1.40;1.00;;;20.90;60.50;;;;;;4974394;28;20437;-88
2023/02/18 07:40:00;;;;;;;1.20;1.00;;;21.00;60.70;;;;;;4974231;28;20449;-88
2023/02/18 07:42:27;;;;;;;3.83;1.30;;;21.00;61.00;;;;;;4974289;28;20450;-88
2023/02/18 07:44:54;;;;;;;1.77;1.10;;;21.00;61.10;;;;;;4974288;28;20484;-89
2023/02/18 07:47:20;;;;;;;2.57;0.90;;;21.00;61.10;;;;;;4975214;28;20948;-88
2023/02/18 07:49:47;;;;;;;5.37;1.37;;;21.00;61.20;;;;;;4978082;28;20452;-88
2023/02/18 07:52:16;;;;;;;4.10;1.10;;;21.20;61.40;;;;;;4978114;28;20787;-88
2023/02/18 07:54:43;;;;;;;1.30;1.20;;;21.00;61.20;;;;;;4975486;28;20449;-89
2023/02/18 07:57:10;;;;;;;1.27;1.17;;;21.00;61.20;;;;;;4958547;29;20456;-89
2023/02/18 07:59:36;;;;;;;2.50;1.17;;;21.10;61.40;;;;;;4958516;29;20503;-88
2023/02/18 08:02:04;;;;;;;1.40;1.30;;;21.00;61.30;;;;;;4958571;29;20448;-88
2023/02/18 08:04:31;;;;;;;1.20;1.10;;;21.00;61.50;;;;;;4967622;28;20892;-89
2023/02/18 08:06:57;;;;;;;1.13;1.03;;;21.10;61.50;;;;;;4961957;28;20437;-85
2023/02/18 08:09:26;;;;;;;2.17;1.20;;;21.00;61.40;;;;;;4958123;29;20820;-88
2023/02/18 08:11:52;;;;;;;1.53;1.33;;;21.00;61.20;;;;;;4970904;28;20441;-88
2023/02/18 08:14:19;;;;;;;1.50;1.23;;;20.90;61.50;;;;;;4965401;28;20956;-88
2023/02/18 08:16:46;;;;;;;1.20;1.10;;;20.90;61.30;;;;;;4958021;28;20452;-88
2023/02/18 08:19:13;;;;;;;2.73;1.40;;;20.90;61.30;;;;;;4958132;29;20503;-88
2023/02/18 08:21:40;;;;;;;1.70;1.10;;;21.10;61.40;;;;;;4957962;28;20470;-87
2023/02/18 08:24:07;;;;;;;1.47;1.20;;;21.10;61.50;;;;;;4958684;29;20201;-88
2023/02/18 08:26:36;;;;;;;1.60;1.00;;;21.00;61.20;;;;;;4958009;29;20964;-88
2023/02/18 08:29:03;;;;;;;1.50;1.30;;;21.10;61.50;;;;;;4958121;29;20439;-86
2023/02/18 08:31:31;;;;;;;3.13;1.00;;;21.10;61.20;;;;;;4957516;29;21885;-88
2023/02/18 08:33:59;;;;;;;1.33;1.23;;;21.00;61.40;;;;;;4958044;29;20453;-89
2023/02/18 08:36:27;;;;;;;2.77;1.20;;;21.00;61.30;;;;;;4958036;29;20438;-89
2023/02/18 08:38:54;;;;;;;1.20;1.00;;;21.00;61.20;;;;;;4957964;29;20499;-90
2023/02/18 08:41:21;;;;;;;1.40;1.30;;;21.00;61.20;;;;;;4957913;29;20801;-85
2023/02/18 08:43:56;;;;;;;2.50;1.10;;;21.00;61.30;;;;;;4957892;29;20452;-92
2023/02/18 08:46:23;;;;;;;2.03;1.10;;;21.00;61.10;;;;;;4957817;29;20449;-89
2023/02/18 08:48:57;;;;;;;3.83;1.20;;;21.00;61.50;;;;;;4957911;29;20505;-89
2023/02/18 08:51:33;;;;;;;6.30;1.60;;;21.00;61.40;;;;;;4957529;29;20977;-89
2023/02/18 08:53:59;;;;;;;6.00;1.53;;;21.00;63.00;;;;;;4957285;29;20548;-88
2023/02/18 08:56:26;;;;;;;2.87;1.60;;;20.90;62.70;;;;;;4957250;29;20443;-84
2023/02/18 08:58:53;;;;;;;3.10;1.27;;;20.90;62.70;;;;;;4956840;28;20482;-87
2023/02/18 09:01:22;;;;;;;2.40;1.90;;;20.80;62.80;;;;;;4957516;29;20557;-87
2023/02/18 09:03:49;;;;;;;3.63;1.60;;;20.80;62.70;;;;;;4957447;29;20482;-87
2023/02/18 09:06:16;;;;;;;1.93;1.20;;;20.80;62.50;;;;;;4957512;29;20512;-87
2023/02/18 09:08:43;;;;;;;3.13;1.40;;;20.80;62.10;;;;;;4957445;29;20942;-86
2023/02/18 09:11:11;;;;;;;2.47;1.40;;;20.80;62.20;;;;;;4957361;29;20453;-87
2023/02/18 09:13:38;;;;;;;3.50;1.50;;;20.90;62.00;;;;;;4957144;29;20937;-90
2023/02/18 09:16:08;;;;;;;4.40;1.50;;;20.90;61.80;;;;;;4956930;29;20457;-90
2023/02/18 09:18:36;;;;;;;6.10;1.50;;;20.90;62.20;;;;;;4957421;29;20815;-87
2023/02/18 09:21:06;;;;;;;2.00;1.30;;;20.90;62.30;;;;;;4957122;29;20442;-86
2023/02/18 09:23:35;;;;;;;1.97;1.67;;;20.90;62.30;;;;;;4957123;28;20464;-84
2023/02/18 09:26:05;;;;;;;4.33;1.50;;;20.90;62.10;;;;;;4937289;29;20474;-88
2023/02/18 09:28:32;;;;;;;3.60;2.20;;;20.90;62.00;;;;;;4937608;29;20444;-87
2023/02/18 09:31:03;;;;;;;3.10;1.70;;;20.90;62.10;;;;;;4937486;29;20475;-87
2023/02/18 09:33:30;;;;;;;3.17;1.30;;;20.90;62.00;;;;;;4937390;29;20478;-88
2023/02/18 09:35:58;;;;;;;2.13;1.40;;;20.90;61.90;;;;;;4937327;29;20447;-88
2023/02/18 09:38:24;;;;;;;2.27;1.40;;;21.00;61.90;;;;;;4937476;29;20482;-88
2023/02/18 09:40:54;;;;;;;1.73;1.07;;;20.90;61.80;;;;;;4937298;29;20964;-89
2023/02/18 09:43:28;;;;;;;1.80;1.40;;;20.90;61.80;;;;;;4937319;29;20450;-90
2023/02/18 09:45:56;;;;;;;2.77;1.40;;;20.90;61.70;;;;;;4936957;29;20439;-89
2023/02/18 09:48:27;;;;;;;12.30;1.90;;;20.90;61.80;;;;;;4937146;29;20468;-90
2023/02/18 09:50:55;;;;;;;1.70;1.17;;;20.90;61.70;;;;;;4936846;29;20972;-89
2023/02/18 09:53:24;;;;;;;2.13;1.50;;;20.90;61.70;;;;;;4936861;29;20447;-90
2023/02/18 09:55:53;;;;;;;2.47;1.53;;;20.90;61.70;;;;;;4936943;29;20448;-90
2023/02/18 09:58:22;;;;;;;1.10;1.00;;;20.90;61.60;;;;;;4937074;29;20505;-89
2023/02/18 10:00:52;;;;;;;1.43;1.07;;;20.90;61.50;;;;;;4937026;29;20504;-88
2023/02/18 10:03:21;;;;;;;1.80;1.20;;;20.90;61.50;;;;;;4937044;29;20455;-88
2023/02/18 10:05:57;;;;;;;2.00;1.17;;;20.90;61.40;;;;;;4936987;29;20443;-88
2023/02/18 10:08:29;;;;;;;2.60;1.10;;;20.90;61.40;;;;;;4937012;29;20431;-88
2023/02/18 10:10:56;;;;;;;1.33;1.10;;;20.90;61.40;;;;;;4936486;29;20449;-89
2023/02/18 10:13:24;;;;;;;2.03;1.40;;;20.80;61.30;;;;;;4936970;29;20454;-88
2023/02/18 10:15:52;;;;;;;2.00;1.50;;;20.90;61.40;;;;;;4936943;29;20446;-89
2023/02/18 10:18:28;;;;;;;1.60;1.23;;;20.90;61.40;;;;;;4936790;29;20455;-88
2023/02/18 10:21:05;;;;;;;1.40;1.00;;;20.90;61.40;;;;;;4936624;29;20803;-89
2023/02/18 10:23:35;;;;;;;1.40;1.30;;;20.90;61.40;;;;;;4936997;29;20518;-89
2023/02/18 10:26:05;;;;;;;1.27;1.17;;;20.90;61.30;;;;;;4936536;29;20957;-90
2023/02/18 10:28:34;;;;;;;1.43;1.33;;;20.90;61.30;;;;;;4936588;29;20456;-90
2023/02/18 10:31:07;;;;;;;3.00;1.20;;;20.90;61.30;;;;;;4936457;29;20986;-88
2023/02/18 10:33:36;;;;;;;1.30;1.20;;;20.90;61.30;;;;;;4936419;29;20489;-88
2023/02/18 10:36:22;;;;;;;1.80;1.30;;;20.90;61.30;;;;;;4936655;29;20458;-89
2023/02/18 10:39:13;;;;;;;3.20;1.20;;;20.90;62.10;;;;;;4936424;29;21061;-87
2023/02/18 10:41:48;;;;;;;1.50;1.17;;;20.90;61.20;;;;;;4936385;29;20526;-89
2023/02/18 10:44:23;;;;;;;1.60;0.90;;;20.90;61.20;;;;;;4936460;29;20447;-88
2023/02/18 10:46:59;;;;;;;4.13;2.03;;;20.90;61.20;;;;;;4936368;29;20439;-88
2023/02/18 10:49:53;;;;;;;3.30;1.30;;;20.90;61.20;;;;;;4936281;29;20834;-88
2023/02/18 10:52:21;;;;;;;1.30;1.07;;;20.90;61.20;;;;;;4936511;29;20438;-90
2023/02/18 10:54:53;;;;;;;1.40;1.10;;;20.90;61.00;;;;;;4936640;29;20455;-88
2023/02/18 10:57:21;;;;;;;1.30;1.10;;;20.90;61.10;;;;;;4936465;29;20802;-88
2023/02/18 10:59:56;;;;;;;2.13;1.10;;;20.90;61.10;;;;;;4936117;29;20520;-88
2023/02/18 11:02:29;;;;;;;2.80;1.10;;;20.90;61.10;;;;;;4936631;29;20443;-88
2023/02/18 11:04:58;;;;;;;1.30;1.10;;;20.90;61.10;;;;;;4937005;29;20461;-88
2023/02/18 11:07:29;;;;;;;1.30;1.20;;;20.90;61.10;;;;;;4935933;29;20942;-88
2023/02/18 11:10:00;;;;;;;1.40;1.10;;;20.90;61.00;;;;;;4936244;29;20439;-89
2023/02/18 11:12:30;;;;;;;1.33;1.23;;;20.90;61.00;;;;;;4936152;29;20427;-89
2023/02/18 11:15:17;;;;;;;3.20;1.40;;;20.90;61.10;;;;;;4936119;29;20795;-89
2023/02/18 11:17:45;;;;;;;1.40;1.10;;;20.90;61.00;;;;;;4936419;29;20434;-88
2023/02/18 11:20:26;;;;;;;3.20;1.40;;;20.90;61.00;;;;;;4936104;29;20525;-88
2023/02/18 11:22:58;;;;;;;1.83;1.10;;;20.90;61.00;;;;;;4939857;29;20807;-88
2023/02/18 11:25:28;;;;;;;1.40;1.10;;;21.00;61.10;;;;;;4939930;29;20533;-89
2023/02/18 11:27:57;;;;;;;2.23;1.37;;;20.90;61.00;;;;;;4939986;29;20454;-89
2023/02/18 11:30:26;;;;;;;1.40;1.20;;;20.80;60.90;;;;;;4939680;29;20463;-88
2023/02/18 11:32:59;;;;;;;1.13;1.03;;;20.90;61.00;;;;;;4939533;29;20993;-89
2023/02/18 11:35:29;;;;;;;1.47;1.37;;;20.90;61.00;;;;;;4939959;29;20451;-88
2023/02/18 11:37:58;;;;;;;1.13;1.00;;;20.80;60.90;;;;;;4939903;29;20474;-89
2023/02/18 11:40:29;;;;;;;1.10;0.90;;;20.90;60.90;;;;;;4939680;29;20501;-89
2023/02/18 11:43:07;;;;;;;1.33;1.10;;;21.00;61.10;;;;;;4939615;29;20446;-89
2023/02/18 11:45:35;;;;;;;1.37;1.23;;;20.90;60.90;;;;;;4939827;29;20443;-89
2023/02/18 11:48:07;;;;;;;1.73;1.33;;;20.80;60.80;;;;;;4939575;29;20443;-89
2023/02/18 11:50:35;;;;;;;2.37;1.10;;;20.90;60.90;;;;;;4939574;29;20462;-89
2023/02/18 11:53:25;;;;;;;1.80;1.20;;;20.80;60.70;;;;;;4939319;29;20458;-88
2023/02/18 11:55:56;;;;;;;1.70;1.10;;;20.80;60.70;;;;;;4939556;29;20442;-88
2023/02/18 11:58:24;;;;;;;1.80;1.30;;;20.80;60.80;;;;;;4939557;29;20455;-89
2023/02/18 12:00:55;;;;;;;1.10;0.97;;;20.80;60.80;;;;;;4939118;29;20500;-89
2023/02/18 12:03:30;;;;;;;1.60;1.40;;;20.80;60.80;;;;;;4939501;29;21024;-88
2023/02/18 12:06:01;;;;;;;1.50;1.10;;;20.80;60.70;;;;;;4939478;29;20445;-88
2023/02/18 12:08:31;;;;;;;2.40;1.10;;;21.00;61.00;;;;;;4939213;29;20450;-88
2023/02/18 12:11:04;;;;;;;1.20;1.00;;;21.00;61.00;;;;;;4939177;29;20450;-88
2023/02/18 12:13:36;;;;;;;1.10;0.93;;;21.00;61.00;;;;;;4939338;29;20443;-89
2023/02/18 12:16:17;;;;;;;1.37;1.20;;;20.80;60.70;;;;;;4939478;29;20459;-89
2023/02/18 12:19:02;;;;;;;1.30;1.03;;;20.80;60.70;;;;;;4939138;29;20443;-88
2023/02/18 12:21:38;;;;;;;1.23;1.13;;;20.80;60.70;;;;;;4938850;29;20450;-88
2023/02/18 12:24:18;;;;;;;1.40;1.13;;;20.80;60.80;;;;;;4938911;29;20453;-89
2023/02/18 12:26:56;;;;;;;1.60;1.40;;;20.80;60.70;;;;;;4938767;29;20446;-88
2023/02/18 12:29:43;;;;;;;1.37;1.20;;;20.80;60.80;;;;;;4938799;29;20477;-88
2023/02/18 12:32:23;;;;;;;1.10;0.87;;;20.80;60.80;;;;;;4938310;29;20485;-89
2023/02/18 12:35:03;;;;;;;1.40;0.97;;;20.80;60.80;;;;;;4938627;29;20439;-88
2023/02/18 12:37:49;;;;;;;1.30;1.10;;;20.90;60.80;;;;;;4938657;29;20949;-88
2023/02/18 12:40:46;;;;;;;1.83;1.17;;;20.80;60.70;;;;;;4938293;29;20486;-88
2023/02/18 12:43:27;;;;;;;1.30;1.20;;;20.80;60.80;;;;;;4939245;29;20791;-88
2023/02/18 12:46:18;;;;;;;1.30;0.93;;;20.80;60.70;;;;;;4938484;29;20435;-88
2023/02/18 12:49:10;;;;;;;1.10;0.90;;;20.80;60.70;;;;;;4938708;29;20443;-88
2023/02/18 12:51:55;;;;;;;1.27;1.03;;;20.80;60.70;;;;;;4938444;29;20466;-88
2023/02/18 12:54:33;;;;;;;1.20;1.10;;;20.90;60.80;;;;;;4938584;29;20443;-89
2023/02/18 12:57:29;;;;;;;1.10;0.90;;;20.80;60.80;;;;;;4938495;29;20451;-88
2023/02/18 13:00:23;;;;;;;1.17;1.00;;;20.80;60.70;;;;;;4934739;29;20510;-88
2023/02/18 13:03:26;;;;;;;1.30;1.20;;;20.80;60.60;;;;;;4938416;29;20457;-89
2023/02/18 13:06:02;;;;;;;1.70;1.37;;;20.80;60.70;;;;;;4936700;29;20462;-89
2023/02/18 13:08:38;;;;;;;1.73;1.53;;;20.70;60.60;;;;;;4938193;29;20447;-89